YXMG weather

Murgon Hospital Helipad
Murgon, Queensland, Australia

Public forecast

Using degrees Celsius for public forecast. Weather courtesy of forecast.io.

METAR (pilot weather report)

Closest report is Kingaroy Airport, 21.4 nm (39.6 km) SSW. Retrieved 2019/04/18 14:00 UTC (45 minutes ago):

YKRY 181400Z AUTO 18005KT 9999 // BKN023 BKN033 BKN041 16/15 Q1024

TAF (pilot weather forecast)

Closest forecast is Brisbane International Airport, 92.9 nm (172.1 km) SE. Retrieved 2019/04/18 12:00 UTC (3 hours ago):

TAF YBBN 181112Z 1812/1918 19008KT 9999 -SHRA SCT020 SCT035 FM182300 13010KT 9999 -SHRA SCT025 BKN040 FM191200 13009KT 9999 -SHRA BKN025 OVC040 INTER 1818/1918 3000 SHRA BKN012